sensor_id;sensor_type;location;lat;lon;timestamp;pressure;altitude;pressure_sealevel;temperature;humidity
39739;BME280;25422;48.286;8.484;2023-04-01T00:01:28;92882.19;;;4.93;100.00
39739;BME280;25422;48.286;8.484;2023-04-01T00:03:53;92874.59;;;4.91;100.00
39739;BME280;25422;48.286;8.484;2023-04-01T00:06:19;92872.13;;;4.89;100.00
39739;BME280;25422;48.286;8.484;2023-04-01T00:08:45;92875.88;;;4.87;100.00
39739;BME280;25422;48.286;8.484;2023-04-01T00:11:11;92862.91;;;4.87;100.00
39739;BME280;25422;48.286;8.484;2023-04-01T00:13:36;92878.00;;;4.83;100.00
39739;BME280;25422;48.286;8.484;2023-04-01T00:16:02;92878.78;;;4.84;100.00
39739;BME280;25422;48.286;8.484;2023-04-01T00:18:29;92874.91;;;4.80;100.00
39739;BME280;25422;48.286;8.484;2023-04-01T00:20:55;92887.25;;;4.78;100.00
39739;BME280;25422;48.286;8.484;2023-04-01T00:23:21;92884.19;;;4.74;100.00
39739;BME280;25422;48.286;8.484;2023-04-01T00:25:47;92873.31;;;4.79;100.00
39739;BME280;25422;48.286;8.484;2023-04-01T00:28:14;92875.44;;;4.75;100.00
39739;BME280;25422;48.286;8.484;2023-04-01T00:30:40;92872.34;;;4.71;100.00
39739;BME280;25422;48.286;8.484;2023-04-01T00:33:06;92869.63;;;4.65;100.00
39739;BME280;25422;48.286;8.484;2023-04-01T00:35:31;92867.69;;;4.67;100.00
39739;BME280;25422;48.286;8.484;2023-04-01T00:37:57;92863.94;;;4.61;100.00
39739;BME280;25422;48.286;8.484;2023-04-01T00:40:36;92866.88;;;4.58;100.00
39739;BME280;25422;48.286;8.484;2023-04-01T00:43:01;92851.69;;;4.55;100.00
39739;BME280;25422;48.286;8.484;2023-04-01T00:45:34;92858.16;;;4.51;100.00
39739;BME280;25422;48.286;8.484;2023-04-01T00:48:05;92865.13;;;4.50;100.00
39739;BME280;25422;48.286;8.484;2023-04-01T00:50:33;92862.06;;;4.47;100.00
39739;BME280;25422;48.286;8.484;2023-04-01T00:53:00;92857.53;;;4.41;100.00
39739;BME280;25422;48.286;8.484;2023-04-01T00:55:28;92853.66;;;4.36;100.00
39739;BME280;25422;48.286;8.484;2023-04-01T00:57:56;92843.78;;;4.32;100.00
39739;BME280;25422;48.286;8.484;2023-04-01T01:00:23;92841.97;;;4.41;100.00
39739;BME280;25422;48.286;8.484;2023-04-01T01:02:50;92836.66;;;4.34;100.00
39739;BME280;25422;48.286;8.484;2023-04-01T01:05:16;92831.31;;;4.44;100.00
39739;BME280;25422;48.286;8.484;2023-04-01T01:07:55;92836.50;;;4.44;100.00
39739;BME280;25422;48.286;8.484;2023-04-01T01:10:26;92828.06;;;4.42;100.00
39739;BME280;25422;48.286;8.484;2023-04-01T01:29:26;92851.91;;;4.29;100.00
39739;BME280;25422;48.286;8.484;2023-04-01T01:32:24;92851.25;;;4.27;100.00
39739;BME280;25422;48.286;8.484;2023-04-01T01:37:44;92847.19;;;4.24;100.00
39739;BME280;25422;48.286;8.484;2023-04-01T01:40:12;92848.16;;;4.23;100.00
39739;BME280;25422;48.286;8.484;2023-04-01T01:42:43;92855.63;;;4.18;100.00
39739;BME280;25422;48.286;8.484;2023-04-01T01:45:12;92861.09;;;4.15;100.00
39739;BME280;25422;48.286;8.484;2023-04-01T01:47:40;92862.41;;;4.11;100.00
39739;BME280;25422;48.286;8.484;2023-04-01T01:50:08;92857.91;;;4.04;100.00
39739;BME280;25422;48.286;8.484;2023-04-01T01:52:34;92867.59;;;4.02;100.00
39739;BME280;25422;48.286;8.484;2023-04-01T01:55:00;92865.97;;;4.01;100.00
39739;BME280;25422;48.286;8.484;2023-04-01T01:57:36;92855.63;;;3.93;100.00
39739;BME280;25422;48.286;8.484;2023-04-01T02:00:09;92858.69;;;3.88;100.00
39739;BME280;25422;48.286;8.484;2023-04-01T02:02:46;92853.19;;;3.83;100.00
39739;BME280;25422;48.286;8.484;2023-04-01T02:05:17;92864.34;;;3.76;100.00
39739;BME280;25422;48.286;8.484;2023-04-01T02:07:48;92860.47;;;3.71;100.00
39739;BME280;25422;48.286;8.484;2023-04-01T02:10:15;92862.25;;;3.71;100.00
39739;BME280;25422;48.286;8.484;2023-04-01T02:12:44;92855.28;;;3.63;100.00
39739;BME280;25422;48.286;8.484;2023-04-01T02:15:13;92862.72;;;3.58;100.00
39739;BME280;25422;48.286;8.484;2023-04-01T02:17:44;92868.03;;;3.57;100.00
39739;BME280;25422;48.286;8.484;2023-04-01T02:20:15;92869.31;;;3.52;100.00
39739;BME280;25422;48.286;8.484;2023-04-01T02:22:47;92865.94;;;3.52;100.00
39739;BME280;25422;48.286;8.484;2023-04-01T02:25:17;92865.28;;;3.50;100.00
39739;BME280;25422;48.286;8.484;2023-04-01T02:27:44;92861.25;;;3.47;100.00
39739;BME280;25422;48.286;8.484;2023-04-01T02:30:12;92866.25;;;3.49;100.00
39739;BME280;25422;48.286;8.484;2023-04-01T02:32:39;92880.16;;;3.48;100.00
39739;BME280;25422;48.286;8.484;2023-04-01T02:35:07;92880.94;;;3.48;100.00
39739;BME280;25422;48.286;8.484;2023-04-01T02:37:35;92882.06;;;3.37;100.00
39739;BME280;25422;48.286;8.484;2023-04-01T02:40:05;92862.19;;;3.30;100.00
39739;BME280;25422;48.286;8.484;2023-04-01T02:42:34;92857.47;;;3.25;100.00
39739;BME280;25422;48.286;8.484;2023-04-01T02:45:00;92862.63;;;3.25;100.00
39739;BME280;25422;48.286;8.484;2023-04-01T02:47:25;92870.56;;;3.32;100.00
39739;BME280;25422;48.286;8.484;2023-04-01T02:49:50;92862.50;;;3.35;100.00
39739;BME280;25422;48.286;8.484;2023-04-01T02:52:16;92860.91;;;3.42;100.00
39739;BME280;25422;48.286;8.484;2023-04-01T02:54:41;92864.31;;;3.43;100.00
39739;BME280;25422;48.286;8.484;2023-04-01T02:57:07;92851.72;;;3.48;100.00
39739;BME280;25422;48.286;8.484;2023-04-01T02:59:32;92850.59;;;3.59;100.00
39739;BME280;25422;48.286;8.484;2023-04-01T03:01:58;92845.59;;;3.57;100.00
39739;BME280;25422;48.286;8.484;2023-04-01T03:04:23;92841.38;;;3.64;100.00
39739;BME280;25422;48.286;8.484;2023-04-01T03:06:49;92836.53;;;3.61;100.00
39739;BME280;25422;48.286;8.484;2023-04-01T03:09:15;92849.47;;;3.69;100.00
39739;BME280;25422;48.286;8.484;2023-04-01T03:11:41;92841.72;;;3.69;100.00
39739;BME280;25422;48.286;8.484;2023-04-01T03:14:06;92840.41;;;3.74;100.00
39739;BME280;25422;48.286;8.484;2023-04-01T03:16:32;92840.59;;;3.72;100.00
39739;BME280;25422;48.286;8.484;2023-04-01T03:18:58;92838.16;;;3.79;100.00
39739;BME280;25422;48.286;8.484;2023-04-01T03:21:25;92837.84;;;3.82;100.00
39739;BME280;25422;48.286;8.484;2023-04-01T03:23:51;92837.19;;;3.80;100.00
39739;BME280;25422;48.286;8.484;2023-04-01T03:26:17;92829.75;;;3.77;100.00
39739;BME280;25422;48.286;8.484;2023-04-01T03:28:43;92836.06;;;3.74;100.00
39739;BME280;25422;48.286;8.484;2023-04-01T03:31:09;92845.44;;;3.67;100.00
39739;BME280;25422;48.286;8.484;2023-04-01T03:33:42;92840.09;;;3.60;100.00
39739;BME280;25422;48.286;8.484;2023-04-01T03:36:07;92843.16;;;3.64;100.00
39739;BME280;25422;48.286;8.484;2023-04-01T03:38:35;92841.56;;;3.71;100.00
39739;BME280;25422;48.286;8.484;2023-04-01T03:41:01;92839.47;;;3.75;100.00
39739;BME280;25422;48.286;8.484;2023-04-01T03:43:27;92831.22;;;3.71;100.00
39739;BME280;25422;48.286;8.484;2023-04-01T03:45:53;92831.38;;;3.69;100.00
39739;BME280;25422;48.286;8.484;2023-04-01T03:48:20;92826.03;;;3.63;100.00
39739;BME280;25422;48.286;8.484;2023-04-01T03:50:46;92831.38;;;3.61;100.00
39739;BME280;25422;48.286;8.484;2023-04-01T03:53:12;92835.06;;;3.59;100.00
39739;BME280;25422;48.286;8.484;2023-04-01T03:55:40;92839.75;;;3.63;100.00
39739;BME280;25422;48.286;8.484;2023-04-01T03:58:07;92830.06;;;3.57;100.00
39739;BME280;25422;48.286;8.484;2023-04-01T04:00:33;92843.16;;;3.56;100.00
39739;BME280;25422;48.286;8.484;2023-04-01T04:03:02;92844.75;;;3.48;100.00
39739;BME280;25422;48.286;8.484;2023-04-01T04:05:32;92831.19;;;3.54;100.00
39739;BME280;25422;48.286;8.484;2023-04-01T04:07:57;92833.44;;;3.58;100.00
39739;BME280;25422;48.286;8.484;2023-04-01T04:10:23;92832.16;;;3.62;100.00
39739;BME280;25422;48.286;8.484;2023-04-01T04:12:50;92836.22;;;3.64;100.00
39739;BME280;25422;48.286;8.484;2023-04-01T04:15:16;92839.28;;;3.68;100.00
39739;BME280;25422;48.286;8.484;2023-04-01T04:17:42;92837.16;;;3.63;100.00
39739;BME280;25422;48.286;8.484;2023-04-01T04:20:08;92835.25;;;3.65;100.00
39739;BME280;25422;48.286;8.484;2023-04-01T04:22:34;92827.97;;;3.69;100.00
39739;BME280;25422;48.286;8.484;2023-04-01T04:25:04;92823.78;;;3.76;100.00
39739;BME280;25422;48.286;8.484;2023-04-01T04:27:30;92830.88;;;3.74;100.00
39739;BME280;25422;48.286;8.484;2023-04-01T04:30:05;92823.94;;;3.75;100.00
39739;BME280;25422;48.286;8.484;2023-04-01T04:32:31;92826.81;;;3.71;100.00
39739;BME280;25422;48.286;8.484;2023-04-01T04:34:57;92824.25;;;3.71;100.00
39739;BME280;25422;48.286;8.484;2023-04-01T04:37:22;92835.59;;;3.70;100.00
39739;BME280;25422;48.286;8.484;2023-04-01T04:39:48;92834.13;;;3.76;100.00
39739;BME280;25422;48.286;8.484;2023-04-01T04:42:13;92828.94;;;3.76;100.00
39739;BME280;25422;48.286;8.484;2023-04-01T04:44:39;92838.81;;;3.81;100.00
39739;BME280;25422;48.286;8.484;2023-04-01T04:47:05;92838.00;;;3.88;100.00
39739;BME280;25422;48.286;8.484;2023-04-01T04:49:30;92836.88;;;3.91;100.00
39739;BME280;25422;48.286;8.484;2023-04-01T04:51:57;92836.88;;;3.91;100.00
39739;BME280;25422;48.286;8.484;2023-04-01T04:54:25;92837.84;;;3.90;100.00
39739;BME280;25422;48.286;8.484;2023-04-01T04:56:56;92832.03;;;3.88;100.00
39739;BME280;25422;48.286;8.484;2023-04-01T04:59:24;92830.41;;;3.95;100.00
39739;BME280;25422;48.286;8.484;2023-04-01T05:01:57;92825.41;;;3.94;100.00
39739;BME280;25422;48.286;8.484;2023-04-01T05:04:22;92828.44;;;3.97;100.00
39739;BME280;25422;48.286;8.484;2023-04-01T05:06:48;92822.63;;;4.03;100.00
39739;BME280;25422;48.286;8.484;2023-04-01T05:09:15;92830.91;;;3.99;100.00
39739;BME280;25422;48.286;8.484;2023-04-01T05:11:41;92829.72;;;4.01;100.00
39739;BME280;25422;48.286;8.484;2023-04-01T05:14:12;92834.63;;;3.96;100.00
39739;BME280;25422;48.286;8.484;2023-04-01T05:16:37;92833.31;;;3.92;100.00
39739;BME280;25422;48.286;8.484;2023-04-01T05:19:03;92830.72;;;3.92;100.00
39739;BME280;25422;48.286;8.484;2023-04-01T05:21:29;92821.50;;;3.98;100.00
39739;BME280;25422;48.286;8.484;2023-04-01T05:23:55;92822.31;;;3.98;100.00
39739;BME280;25422;48.286;8.484;2023-04-01T05:26:23;92820.22;;;4.02;100.00
39739;BME280;25422;48.286;8.484;2023-04-01T05:28:48;92811.63;;;4.10;100.00
39739;BME280;25422;48.286;8.484;2023-04-01T05:31:14;92813.38;;;4.17;100.00
39739;BME280;25422;48.286;8.484;2023-04-01T05:33:42;92816.16;;;4.16;100.00
39739;BME280;25422;48.286;8.484;2023-04-01T05:36:14;92806.09;;;4.21;100.00
39739;BME280;25422;48.286;8.484;2023-04-01T05:38:40;92817.59;;;4.18;100.00
39739;BME280;25422;48.286;8.484;2023-04-01T05:41:09;92813.53;;;4.24;100.00
39739;BME280;25422;48.286;8.484;2023-04-01T05:43:39;92826.47;;;4.24;100.00
39739;BME280;25422;48.286;8.484;2023-04-01T05:46:25;92831.66;;;4.24;100.00
39739;BME280;25422;48.286;8.484;2023-04-01T05:48:57;92819.03;;;4.29;100.00
39739;BME280;25422;48.286;8.484;2023-04-01T05:51:24;92816.44;;;4.37;100.00
39739;BME280;25422;48.286;8.484;2023-04-01T05:53:50;92830.84;;;4.40;100.00
39739;BME280;25422;48.286;8.484;2023-04-01T05:56:16;92810.28;;;4.38;100.00
39739;BME280;25422;48.286;8.484;2023-04-01T05:58:50;92824.69;;;4.41;100.00
39739;BME280;25422;48.286;8.484;2023-04-01T06:01:16;92812.88;;;4.38;100.00
39739;BME280;25422;48.286;8.484;2023-04-01T06:03:43;92809.16;;;4.41;100.00
39739;BME280;25422;48.286;8.484;2023-04-01T06:06:14;92816.59;;;4.36;100.00
39739;BME280;25422;48.286;8.484;2023-04-01T06:08:41;92809.63;;;4.36;100.00
39739;BME280;25422;48.286;8.484;2023-04-01T06:17:03;92813.81;;;4.46;100.00
39739;BME280;25422;48.286;8.484;2023-04-01T06:22:49;92805.03;;;4.63;100.00
39739;BME280;25422;48.286;8.484;2023-04-01T06:25:29;92805.03;;;4.63;100.00
39739;BME280;25422;48.286;8.484;2023-04-01T06:28:22;92802.13;;;4.58;100.00
39739;BME280;25422;48.286;8.484;2023-04-01T06:31:04;92804.88;;;4.56;100.00
39739;BME280;25422;48.286;8.484;2023-04-01T06:36:52;92800.50;;;4.57;100.00
39739;BME280;25422;48.286;8.484;2023-04-01T06:56:58;92786.72;;;4.65;100.00
39739;BME280;25422;48.286;8.484;2023-04-01T06:59:32;92788.19;;;4.67;100.00
39739;BME280;25422;48.286;8.484;2023-04-01T07:04:43;92779.59;;;4.67;100.00
39739;BME280;25422;48.286;8.484;2023-04-01T07:07:19;92794.97;;;4.68;100.00
39739;BME280;25422;48.286;8.484;2023-04-01T07:09:57;92786.22;;;4.69;100.00
39739;BME280;25422;48.286;8.484;2023-04-01T07:12:36;92793.66;;;4.72;100.00
39739;BME280;25422;48.286;8.484;2023-04-01T07:15:50;92797.38;;;4.78;100.00
39739;BME280;25422;48.286;8.484;2023-04-01T07:18:25;92802.84;;;4.83;100.00
39739;BME280;25422;48.286;8.484;2023-04-01T07:20:54;92793.94;;;4.86;100.00
39739;BME280;25422;48.286;8.484;2023-04-01T07:23:23;92804.00;;;4.81;100.00
39739;BME280;25422;48.286;8.484;2023-04-01T07:26:00;92801.56;;;4.79;100.00
39739;BME280;25422;48.286;8.484;2023-04-01T07:28:32;92817.78;;;4.73;100.00
39739;BME280;25422;48.286;8.484;2023-04-01T07:31:52;92807.91;;;4.77;100.00
39739;BME280;25422;48.286;8.484;2023-04-01T07:34:25;92817.28;;;4.78;100.00
39739;BME280;25422;48.286;8.484;2023-04-01T07:40:06;92809.38;;;4.71;100.00
39739;BME280;25422;48.286;8.484;2023-04-01T07:45:31;92803.69;;;4.76;100.00
39739;BME280;25422;48.286;8.484;2023-04-01T07:56:16;92814.34;;;4.81;100.00
39739;BME280;25422;48.286;8.484;2023-04-01T07:59:03;92811.47;;;4.76;100.00
39739;BME280;25422;48.286;8.484;2023-04-01T08:07:20;92830.94;;;4.63;100.00
39739;BME280;25422;48.286;8.484;2023-04-01T08:10:18;92829.97;;;4.64;100.00
39739;BME280;25422;48.286;8.484;2023-04-01T08:13:41;92819.25;;;4.67;100.00
39739;BME280;25422;48.286;8.484;2023-04-01T08:21:49;92826.31;;;4.90;100.00
39739;BME280;25422;48.286;8.484;2023-04-01T08:24:33;92827.41;;;4.96;100.00
39739;BME280;25422;48.286;8.484;2023-04-01T08:27:03;92838.28;;;4.99;100.00
39739;BME280;25422;48.286;8.484;2023-04-01T08:29:46;92830.81;;;4.96;100.00
39739;BME280;25422;48.286;8.484;2023-04-01T08:32:23;92833.72;;;5.01;100.00
39739;BME280;25422;48.286;8.484;2023-04-01T08:37:57;92835.34;;;5.02;100.00
39739;BME280;25422;48.286;8.484;2023-04-01T08:40:33;92840.47;;;5.11;100.00
39739;BME280;25422;48.286;8.484;2023-04-01T08:51:43;92846.41;;;5.19;100.00
39739;BME280;25422;48.286;8.484;2023-04-01T08:56:46;92846.28;;;5.21;100.00
39739;BME280;25422;48.286;8.484;2023-04-01T09:02:35;92849.09;;;5.34;100.00
39739;BME280;25422;48.286;8.484;2023-04-01T09:05:52;92857.56;;;5.28;100.00
39739;BME280;25422;48.286;8.484;2023-04-01T09:08:41;92860.00;;;5.30;100.00
39739;BME280;25422;48.286;8.484;2023-04-01T09:28:20;92871.06;;;5.15;100.00
39739;BME280;25422;48.286;8.484;2023-04-01T09:34:13;92882.13;;;5.09;100.00
39739;BME280;25422;48.286;8.484;2023-04-01T09:37:18;92877.13;;;5.07;100.00
39739;BME280;25422;48.286;8.484;2023-04-01T09:40:00;92879.84;;;5.14;100.00
39739;BME280;25422;48.286;8.484;2023-04-01T09:45:58;92878.44;;;5.03;100.00
39739;BME280;25422;48.286;8.484;2023-04-01T09:48:51;92881.81;;;5.04;100.00
39739;BME280;25422;48.286;8.484;2023-04-01T10:14:44;92899.44;;;5.09;100.00
39739;BME280;25422;48.286;8.484;2023-04-01T10:17:28;92882.44;;;5.14;100.00
39739;BME280;25422;48.286;8.484;2023-04-01T10:25:52;92893.63;;;5.06;100.00
39739;BME280;25422;48.286;8.484;2023-04-01T10:28:35;92892.53;;;5.01;100.00
39739;BME280;25422;48.286;8.484;2023-04-01T10:31:49;92895.13;;;5.01;100.00
39739;BME280;25422;48.286;8.484;2023-04-01T10:40:36;92906.94;;;5.03;100.00
39739;BME280;25422;48.286;8.484;2023-04-01T10:52:31;92899.44;;;5.09;100.00
39739;BME280;25422;48.286;8.484;2023-04-01T11:13:36;92896.34;;;5.53;100.00
39739;BME280;25422;48.286;8.484;2023-04-01T11:21:49;92886.94;;;5.52;100.00
39739;BME280;25422;48.286;8.484;2023-04-01T11:30:43;92899.41;;;5.56;100.00
39739;BME280;25422;48.286;8.484;2023-04-01T11:33:25;92905.03;;;5.68;100.00
39739;BME280;25422;48.286;8.484;2023-04-01T11:38:30;92897.06;;;5.70;100.00
39739;BME280;25422;48.286;8.484;2023-04-01T11:41:38;92923.06;;;5.62;100.00
39739;BME280;25422;48.286;8.484;2023-04-01T11:44:43;92916.13;;;5.54;100.00
39739;BME280;25422;48.286;8.484;2023-04-01T11:47:48;92935.91;;;5.55;100.00
39739;BME280;25422;48.286;8.484;2023-04-01T11:53:02;92928.31;;;5.45;100.00
39739;BME280;25422;48.286;8.484;2023-04-01T11:58:32;92931.56;;;5.47;100.00
39739;BME280;25422;48.286;8.484;2023-04-01T12:02:18;92918.16;;;5.35;100.00
39739;BME280;25422;48.286;8.484;2023-04-01T12:07:15;92931.53;;;5.55;100.00
39739;BME280;25422;48.286;8.484;2023-04-01T12:09:57;92932.63;;;5.61;100.00
39739;BME280;25422;48.286;8.484;2023-04-01T12:15:50;92927.34;;;5.78;100.00
39739;BME280;25422;48.286;8.484;2023-04-01T12:18:30;92934.38;;;6.00;100.00
39739;BME280;25422;48.286;8.484;2023-04-01T12:21:17;92928.47;;;6.15;100.00
39739;BME280;25422;48.286;8.484;2023-04-01T12:37:52;92921.53;;;6.83;100.00
39739;BME280;25422;48.286;8.484;2023-04-01T12:48:59;92931.78;;;7.45;100.00
39739;BME280;25422;48.286;8.484;2023-04-01T13:08:03;92948.19;;;7.00;100.00
39739;BME280;25422;48.286;8.484;2023-04-01T13:13:56;92945.91;;;6.82;100.00
39739;BME280;25422;48.286;8.484;2023-04-01T13:16:42;92953.53;;;6.69;100.00
39739;BME280;25422;48.286;8.484;2023-04-01T13:24:45;92947.88;;;6.65;100.00
39739;BME280;25422;48.286;8.484;2023-04-01T13:27:24;92951.50;;;6.56;100.00
39739;BME280;25422;48.286;8.484;2023-04-01T13:32:52;92953.06;;;6.65;100.00
39739;BME280;25422;48.286;8.484;2023-04-01T13:36:41;92953.88;;;6.66;100.00
39739;BME280;25422;48.286;8.484;2023-04-01T13:39:15;92955.06;;;6.78;100.00
39739;BME280;25422;48.286;8.484;2023-04-01T13:44:29;92951.75;;;6.84;100.00
39739;BME280;25422;48.286;8.484;2023-04-01T13:50:16;92951.38;;;6.72;100.00
39739;BME280;25422;48.286;8.484;2023-04-01T13:59:03;92945.22;;;6.88;100.00
39739;BME280;25422;48.286;8.484;2023-04-01T14:01:42;92945.41;;;6.87;100.00
39739;BME280;25422;48.286;8.484;2023-04-01T14:12:43;92950.91;;;7.22;100.00
39739;BME280;25422;48.286;8.484;2023-04-01T14:17:59;92948.81;;;7.32;100.00
39739;BME280;25422;48.286;8.484;2023-04-01T14:29:14;92964.34;;;7.40;100.00
39739;BME280;25422;48.286;8.484;2023-04-01T14:34:19;92967.88;;;7.33;100.00
39739;BME280;25422;48.286;8.484;2023-04-01T14:45:35;92969.25;;;6.90;100.00
39739;BME280;25422;48.286;8.484;2023-04-01T14:48:32;92965.25;;;7.03;100.00
39739;BME280;25422;48.286;8.484;2023-04-01T14:51:13;92965.84;;;7.05;100.00
39739;BME280;25422;48.286;8.484;2023-04-01T14:53:54;92972.19;;;6.87;100.00
39739;BME280;25422;48.286;8.484;2023-04-01T15:02:18;92964.16;;;6.59;100.00
39739;BME280;25422;48.286;8.484;2023-04-01T15:07:54;92971.22;;;6.50;100.00
39739;BME280;25422;48.286;8.484;2023-04-01T15:13:19;92960.06;;;6.41;100.00
39739;BME280;25422;48.286;8.484;2023-04-01T15:21:55;92973.69;;;6.67;100.00
39739;BME280;25422;48.286;8.484;2023-04-01T15:24:35;92966.97;;;6.72;100.00
39739;BME280;25422;48.286;8.484;2023-04-01T15:27:07;92964.91;;;6.68;100.00
39739;BME280;25422;48.286;8.484;2023-04-01T15:29:46;92964.66;;;6.78;100.00
39739;BME280;25422;48.286;8.484;2023-04-01T15:32:41;92973.81;;;6.88;100.00
39739;BME280;25422;48.286;8.484;2023-04-01T15:35:34;92966.47;;;6.92;100.00
39739;BME280;25422;48.286;8.484;2023-04-01T15:38:16;92967.81;;;6.88;100.00
39739;BME280;25422;48.286;8.484;2023-04-01T15:40:53;92977.13;;;6.97;100.00
39739;BME280;25422;48.286;8.484;2023-04-01T15:43:45;92984.16;;;6.97;100.00
39739;BME280;25422;48.286;8.484;2023-04-01T15:49:31;92986.94;;;6.95;100.00
39739;BME280;25422;48.286;8.484;2023-04-01T16:02:46;92974.97;;;6.86;100.00
39739;BME280;25422;48.286;8.484;2023-04-01T16:05:33;92983.75;;;6.85;100.00
39739;BME280;25422;48.286;8.484;2023-04-01T16:11:12;92975.72;;;6.95;100.00
39739;BME280;25422;48.286;8.484;2023-04-01T16:14:14;92976.81;;;7.00;100.00
39739;BME280;25422;48.286;8.484;2023-04-01T16:19:49;92971.13;;;6.97;100.00
39739;BME280;25422;48.286;8.484;2023-04-01T16:22:21;92978.94;;;6.97;100.00
39739;BME280;25422;48.286;8.484;2023-04-01T16:24:59;92984.69;;;6.92;100.00
39739;BME280;25422;48.286;8.484;2023-04-01T16:27:37;92987.53;;;6.97;100.00
39739;BME280;25422;48.286;8.484;2023-04-01T16:33:04;92994.16;;;6.85;100.00
39739;BME280;25422;48.286;8.484;2023-04-01T16:35:46;92987.78;;;6.87;100.00
39739;BME280;25422;48.286;8.484;2023-04-01T16:38:23;92993.53;;;6.83;100.00
39739;BME280;25422;48.286;8.484;2023-04-01T16:41:11;92983.69;;;6.93;100.00
39739;BME280;25422;48.286;8.484;2023-04-01T16:46:38;92996.03;;;6.76;100.00
39739;BME280;25422;48.286;8.484;2023-04-01T16:51:53;93001.16;;;6.84;100.00
39739;BME280;25422;48.286;8.484;2023-04-01T16:54:43;93015.41;;;6.88;100.00
39739;BME280;25422;48.286;8.484;2023-04-01T17:02:45;93019.78;;;6.73;100.00
39739;BME280;25422;48.286;8.484;2023-04-01T17:05:12;93030.00;;;6.74;100.00
39739;BME280;25422;48.286;8.484;2023-04-01T17:07:46;93015.84;;;6.77;100.00
39739;BME280;25422;48.286;8.484;2023-04-01T17:10:40;93024.63;;;6.76;100.00
39739;BME280;25422;48.286;8.484;2023-04-01T17:26:55;93007.97;;;6.16;100.00
39739;BME280;25422;48.286;8.484;2023-04-01T17:34:35;93025.44;;;5.99;100.00
39739;BME280;25422;48.286;8.484;2023-04-01T17:42:22;93044.63;;;5.81;100.00
39739;BME280;25422;48.286;8.484;2023-04-01T17:45:21;93056.47;;;5.76;100.00
39739;BME280;25422;48.286;8.484;2023-04-01T17:48:18;93059.91;;;5.68;100.00
39739;BME280;25422;48.286;8.484;2023-04-01T17:51:13;93062.84;;;5.65;100.00
39739;BME280;25422;48.286;8.484;2023-04-01T18:03:13;93063.53;;;5.42;100.00
39739;BME280;25422;48.286;8.484;2023-04-01T18:06:03;93075.06;;;5.39;100.00
39739;BME280;25422;48.286;8.484;2023-04-01T18:09:07;93080.91;;;5.33;100.00
39739;BME280;25422;48.286;8.484;2023-04-01T18:17:16;93079.13;;;5.26;100.00
39739;BME280;25422;48.286;8.484;2023-04-01T18:22:39;93077.50;;;5.24;100.00
39739;BME280;25422;48.286;8.484;2023-04-01T18:25:27;93082.53;;;5.26;100.00
39739;BME280;25422;48.286;8.484;2023-04-01T18:28:16;93090.16;;;5.19;100.00
39739;BME280;25422;48.286;8.484;2023-04-01T18:30:43;93084.00;;;5.12;100.00
39739;BME280;25422;48.286;8.484;2023-04-01T18:38:57;93095.34;;;5.03;100.00
39739;BME280;25422;48.286;8.484;2023-04-01T18:41:51;93095.50;;;4.93;100.00
39739;BME280;25422;48.286;8.484;2023-04-01T18:44:48;93103.94;;;4.87;100.00
39739;BME280;25422;48.286;8.484;2023-04-01T18:47:47;93104.25;;;4.84;100.00
39739;BME280;25422;48.286;8.484;2023-04-01T18:50:30;93102.00;;;4.81;100.00
39739;BME280;25422;48.286;8.484;2023-04-01T18:53:08;93108.31;;;4.78;100.00
39739;BME280;25422;48.286;8.484;2023-04-01T18:55:39;93115.28;;;4.78;100.00
39739;BME280;25422;48.286;8.484;2023-04-01T18:58:22;93124.63;;;4.70;100.00
39739;BME280;25422;48.286;8.484;2023-04-01T19:01:01;93112.97;;;4.66;100.00
39739;BME280;25422;48.286;8.484;2023-04-01T19:03:40;93126.59;;;4.60;100.00
39739;BME280;25422;48.286;8.484;2023-04-01T19:06:17;93127.53;;;4.51;100.00
39739;BME280;25422;48.286;8.484;2023-04-01T19:08:44;93127.19;;;4.54;100.00
39739;BME280;25422;48.286;8.484;2023-04-01T19:11:21;93134.34;;;4.52;100.00
39739;BME280;25422;48.286;8.484;2023-04-01T19:13:59;93132.72;;;4.51;100.00
39739;BME280;25422;48.286;8.484;2023-04-01T19:16:34;93134.16;;;4.45;100.00
39739;BME280;25422;48.286;8.484;2023-04-01T19:19:27;93150.16;;;4.49;100.00
39739;BME280;25422;48.286;8.484;2023-04-01T19:27:24;93145.47;;;4.44;100.00
39739;BME280;25422;48.286;8.484;2023-04-01T19:38:18;93145.88;;;4.74;100.00
39739;BME280;25422;48.286;8.484;2023-04-01T19:41:16;93160.13;;;4.78;100.00
39739;BME280;25422;48.286;8.484;2023-04-01T19:44:02;93151.56;;;4.86;100.00
39739;BME280;25422;48.286;8.484;2023-04-01T19:46:49;93155.13;;;4.85;100.00
39739;BME280;25422;48.286;8.484;2023-04-01T19:52:03;93160.94;;;4.79;100.00
39739;BME280;25422;48.286;8.484;2023-04-01T19:59:50;93155.41;;;4.65;100.00
39739;BME280;25422;48.286;8.484;2023-04-01T20:02:44;93160.88;;;4.54;100.00
39739;BME280;25422;48.286;8.484;2023-04-01T20:05:41;93153.53;;;4.33;100.00
39739;BME280;25422;48.286;8.484;2023-04-01T20:08:21;93157.84;;;4.16;100.00
39739;BME280;25422;48.286;8.484;2023-04-01T20:16:11;93167.00;;;4.02;100.00
39739;BME280;25422;48.286;8.484;2023-04-01T20:18:55;93174.06;;;3.92;100.00
39739;BME280;25422;48.286;8.484;2023-04-01T20:23:56;93168.22;;;3.63;100.00
39739;BME280;25422;48.286;8.484;2023-04-01T20:26:40;93171.56;;;3.47;100.00
39739;BME280;25422;48.286;8.484;2023-04-01T20:29:47;93181.06;;;3.47;100.00
39739;BME280;25422;48.286;8.484;2023-04-01T20:32:32;93181.38;;;3.44;100.00
39739;BME280;25422;48.286;8.484;2023-04-01T20:37:44;93189.28;;;3.42;100.00
39739;BME280;25422;48.286;8.484;2023-04-01T20:43:30;93192.72;;;3.51;100.00
39739;BME280;25422;48.286;8.484;2023-04-01T20:51:24;93196.94;;;3.78;100.00
39739;BME280;25422;48.286;8.484;2023-04-01T20:56:57;93220.25;;;4.04;100.00
39739;BME280;25422;48.286;8.484;2023-04-01T20:59:50;93224.19;;;4.17;100.00
39739;BME280;25422;48.286;8.484;2023-04-01T21:11:14;93223.94;;;4.36;100.00
39739;BME280;25422;48.286;8.484;2023-04-01T21:14:07;93230.13;;;4.35;100.00
39739;BME280;25422;48.286;8.484;2023-04-01T21:17:04;93236.25;;;4.34;100.00